< < Back
Terminal Aerodrome Forecast


Current Version              Previous Versions:   1  2  3  4  5  6  7  8  9  

Terminal Aerodrome Forecast

387
FTUS42 KFFC 111720
TAFMCN
TAF
KMCN 111720Z 1118/1218 24005KT P6SM FEW045
     FM112300 VRB03KT P6SM FEW045
     FM120300 VRB03KT P6SM BKN035
     FM120900 VRB03KT P6SM BKN030=



Latest METAR

626
SAUS80 KWBC 121200 RRB
MTRMCN
METAR KMCN 121153Z AUTO 00000KT 10SM OVC070 03/02 A3014 RMK AO2 SLP206
T00330017 10056 20017 53003 TSNO


USA.gov is the U.S. government's official web portal to all federal, state and local government web resources and services.